Tuesday, September 02, 2014

  Over 45,111,151 pages visited!

GMT:
16:36
PACIFIC:
9:36:43 AM
MOUNTAIN:
10:36:43 AM

CENTRAL:
11:36:43 AM

EASTERN:
12:36:43 PM
ATLANTIC:
1:36:43 PM
NEWFOUNDLAND:
2:06:43 PM
 

 


Watches/Warnings
Current Conditions
Radar/Satellite
Lightning Images


Current Weather Conditions For TORONTO PEARSON,ON

 


Light Rain Showers
 

Temperature: 24C / 75F
Dew Point: 20 C / 68F
Humidity: 78 %
Pressure: 1009.8 mbs (29.82 inches)
Visibility: 19.3 kms (12 SM)
Wind Direction: SSW (210)
Wind Speed: 13 Km/h (8.1 MPH)
Max Wind Gust: No Gusts
Humidex: 31C
WindChill: N/A
    

Observation Information

Date/Time: Tuesday, September 02, 2014 @ 16:08Z
Local Time:
Metar Coded: CYYZ 021608Z 21007KT 12SM -SHRA FEW022 OVC055 24/20 A2983 RMK CU2SC6 SLP098 DENSITY ALT 1800FT

 

 

                   1997-2014 The Ontario Weather Page